Neopolis, Brazil
Current Conditions -  °F | °C
As of 2:00 PM on Thursday 30 Oct 2014 (Local Time) from SBAR Reporting Station
Few Clouds Few Clouds  
Wind Chill: 84°   Ceiling: Unl
Heat Index: 87°   Visibility: 6mi
Dew Point: 68°   Wind: 17mph
Humidity: 58%   Direction: 100°E
Pressure: 29.91"   Gusts: NA
Location:  10.32°S, 36.58°W
Report Text: SBAR 301700Z 10015KT 9999 FEW017 29/20 Q1013
Loading
Personal Weather Stations






























Interactive Weather Map
Tropical Storm Tracking
New forecast layout! Learn more

10-Day Weather Forecast

Advertisements
Track Severe Weather on mobile